createdAt,value
2022-11-07T00:00:16.462Z,98.5
2022-11-07T00:01:16.915Z,98.5
2022-11-07T00:02:17.009Z,98.5
2022-11-07T00:03:17.465Z,98.5
2022-11-07T00:04:17.204Z,98.5
2022-11-07T00:05:16.802Z,98.5
2022-11-07T00:06:17.298Z,98.6
2022-11-07T00:07:16.754Z,98.7
2022-11-07T00:08:17.230Z,98.7
2022-11-07T00:09:16.688Z,98.7
2022-11-07T00:10:17.156Z,98.8
2022-11-07T00:11:16.624Z,98.8
2022-11-07T00:12:16.841Z,98.7
2022-11-07T00:13:17.752Z,98.7
2022-11-07T00:14:17.252Z,98.7
2022-11-07T00:15:16.693Z,98.7
2022-11-07T00:16:17.131Z,98.7
2022-11-07T00:17:16.557Z,98.7
2022-11-07T00:18:17.031Z,98.8
2022-11-07T00:19:16.498Z,98.8
2022-11-07T00:20:16.957Z,98.8
2022-11-07T00:21:17.445Z,98.7
2022-11-07T00:22:16.797Z,98.7
2022-11-07T00:23:17.648Z,98.8
2022-11-07T00:24:17.142Z,98.8
2022-11-07T00:25:16.600Z,98.8
2022-11-07T00:26:17.076Z,98.7
2022-11-07T00:27:16.739Z,98.7
2022-11-07T00:28:17.198Z,98.7
2022-11-07T00:29:16.642Z,98.7
2022-11-07T00:30:17.079Z,98.7
2022-11-07T00:31:16.509Z,98.7
2022-11-07T00:32:17.144Z,98.7
2022-11-07T00:33:17.190Z,98.7
2022-11-07T00:34:16.771Z,98.7
2022-11-07T00:35:17.303Z,98.7
2022-11-07T00:36:16.780Z,98.7
2022-11-07T00:37:17.265Z,98.7
2022-11-07T00:38:16.736Z,98.7
2022-11-07T00:39:17.216Z,98.7
2022-11-07T00:40:16.663Z,98.6
2022-11-07T00:41:17.109Z,98.6
2022-11-07T00:42:16.956Z,98.6
2022-11-07T00:43:17.566Z,98.7
2022-11-07T00:44:17.028Z,98.7
2022-11-07T00:45:16.455Z,98.7
2022-11-07T00:46:16.894Z,98.5
2022-11-07T00:47:17.342Z,98.3
2022-11-07T00:48:16.814Z,98.2
2022-11-07T00:49:17.326Z,98.3
2022-11-07T00:50:16.824Z,98.1
2022-11-07T00:51:17.294Z,98.0
2022-11-07T00:52:16.605Z,98.0
2022-11-07T00:53:17.641Z,98.2
2022-11-07T00:54:17.159Z,98.2
2022-11-07T00:55:16.590Z,98.2
2022-11-07T00:56:17.042Z,98.3
2022-11-07T00:57:16.468Z,98.5
2022-11-07T00:58:16.888Z,98.5
2022-11-07T00:59:17.361Z,98.5
2022-11-07T01:00:16.801Z,98.2
2022-11-07T01:01:17.361Z,98.2
2022-11-07T01:02:17.444Z,98.1
2022-11-07T01:03:17.600Z,98.0
2022-11-07T01:04:17.168Z,98.0
2022-11-07T01:05:16.638Z,97.9
2022-11-07T01:06:17.130Z,97.9
2022-11-07T01:07:16.611Z,98.0
2022-11-07T01:08:17.075Z,98.0
2022-11-07T01:09:16.516Z,97.8
2022-11-07T01:10:16.966Z,97.7
2022-11-07T01:11:17.410Z,97.7
2022-11-07T01:12:16.876Z,97.6
2022-11-07T01:13:17.620Z,97.8
2022-11-07T01:14:17.098Z,97.9
2022-11-07T01:15:16.531Z,97.9
2022-11-07T01:16:17.022Z,97.8
2022-11-07T01:17:16.505Z,97.8
2022-11-07T01:18:17.005Z,97.6
2022-11-07T01:19:16.475Z,97.5
2022-11-07T01:20:16.983Z,97.5
2022-11-07T01:21:16.990Z,97.5
2022-11-07T01:22:17.284Z,97.5
2022-11-07T01:23:17.583Z,97.5
2022-11-07T01:24:17.372Z,97.5
2022-11-07T01:25:16.801Z,97.5
2022-11-07T01:26:17.273Z,97.6
2022-11-07T01:27:16.704Z,97.7
2022-11-07T01:28:17.144Z,97.7
2022-11-07T01:29:16.594Z,97.6
2022-11-07T01:30:17.095Z,97.6
2022-11-07T01:31:16.561Z,97.6
2022-11-07T01:32:16.483Z,97.5
2022-11-07T01:33:17.680Z,97.4
2022-11-07T01:34:17.208Z,97.3
2022-11-07T01:35:16.676Z,97.4
2022-11-07T01:36:17.172Z,97.5
2022-11-07T01:37:16.652Z,97.5
2022-11-07T01:38:17.093Z,97.7
2022-11-07T01:39:16.522Z,97.8
2022-11-07T01:40:16.965Z,98.0
2022-11-07T01:41:17.387Z,98.0
2022-11-07T01:42:16.730Z,98.0
2022-11-07T01:43:17.477Z,98.0
2022-11-07T01:44:16.916Z,98.0
2022-11-07T01:45:17.371Z,98.1
2022-11-07T01:46:16.850Z,98.1
2022-11-07T01:47:17.305Z,98.2
2022-11-07T01:48:16.781Z,98.2
2022-11-07T01:49:17.255Z,98.2
2022-11-07T01:50:16.750Z,98.2
2022-11-07T01:51:17.247Z,98.2
2022-11-07T01:52:17.188Z,98.2
2022-11-07T01:53:17.187Z,98.2
2022-11-07T01:54:16.816Z,98.2
2022-11-07T01:55:17.262Z,98.3
2022-11-07T01:56:16.709Z,98.3
2022-11-07T01:57:17.139Z,98.2
2022-11-07T01:58:16.589Z,98.2
2022-11-07T01:59:17.278Z,98.2
2022-11-07T02:00:16.753Z,98.0
2022-11-07T02:01:17.411Z,97.8
2022-11-07T02:02:17.086Z,97.9
2022-11-07T02:03:17.603Z,98.0
2022-11-07T02:04:17.153Z,98.0
2022-11-07T02:05:16.616Z,98.0
2022-11-07T02:06:17.076Z,98.0
2022-11-07T02:07:16.546Z,98.0
2022-11-07T02:08:16.978Z,98.2
2022-11-07T02:09:17.629Z,98.1
2022-11-07T02:10:17.075Z,98.0
2022-11-07T02:11:16.524Z,98.1
2022-11-07T02:12:17.091Z,98.0
2022-11-07T02:13:17.281Z,98.0
2022-11-07T02:14:16.745Z,98.0
2022-11-07T02:15:17.222Z,98.0
2022-11-07T02:16:16.717Z,98.0
2022-11-07T02:17:17.208Z,98.1
2022-11-07T02:18:16.699Z,98.2
2022-11-07T02:19:17.154Z,98.2
2022-11-07T02:20:16.633Z,98.2
2022-11-07T02:21:17.105Z,98.2
2022-11-07T02:22:16.692Z,98.2
2022-11-07T02:23:17.804Z,98.2
2022-11-07T02:24:17.392Z,98.2
2022-11-07T02:25:16.836Z,98.2
2022-11-07T02:26:17.273Z,98.2
2022-11-07T02:27:16.707Z,98.2
2022-11-07T02:28:17.157Z,98.2
2022-11-07T02:29:16.645Z,98.2
2022-11-07T02:30:17.136Z,98.2
2022-11-07T02:31:16.603Z,98.2
2022-11-07T02:32:16.677Z,98.2
2022-11-07T02:33:17.565Z,98.1
2022-11-07T02:34:17.035Z,97.9
2022-11-07T02:35:16.500Z,97.5
2022-11-07T02:36:16.955Z,97.6
2022-11-07T02:37:17.410Z,97.5
2022-11-07T02:38:16.836Z,97.6
2022-11-07T02:39:17.284Z,97.7
2022-11-07T02:40:16.720Z,97.8
2022-11-07T02:41:17.157Z,97.8
2022-11-07T02:42:16.864Z,97.6
2022-11-07T02:43:17.771Z,97.3
2022-11-07T02:44:17.414Z,97.3
2022-11-07T02:45:16.896Z,97.3
2022-11-07T02:46:17.350Z,97.3
2022-11-07T02:47:16.820Z,97.2
2022-11-07T02:48:17.380Z,97.2
2022-11-07T02:49:16.951Z,97.5
2022-11-07T02:50:17.409Z,97.4
2022-11-07T02:51:16.854Z,97.5
2022-11-07T02:52:16.699Z,97.4
2022-11-07T02:53:17.885Z,97.3
2022-11-07T02:54:16.555Z,97.2
2022-11-07T02:55:16.986Z,97.0
2022-11-07T02:56:16.454Z,97.0
2022-11-07T02:57:16.936Z,97.0
2022-11-07T02:58:17.364Z,96.9
2022-11-07T02:59:16.843Z,96.8
2022-11-07T03:00:17.310Z,96.8
2022-11-07T03:01:16.928Z,96.5
2022-11-07T03:02:17.794Z,96.7
2022-11-07T03:03:18.052Z,96.7
2022-11-07T03:04:16.745Z,96.5
2022-11-07T03:05:17.245Z,96.6
2022-11-07T03:06:16.744Z,96.4
2022-11-07T03:07:17.178Z,96.5
2022-11-07T03:08:16.610Z,96.4
2022-11-07T03:09:17.040Z,96.2
2022-11-07T03:10:16.477Z,96.3
2022-11-07T03:11:16.701Z,96.3
2022-11-07T03:12:16.611Z,96.2
2022-11-07T03:13:17.705Z,96.2
2022-11-07T03:14:17.216Z,96.3
2022-11-07T03:15:16.698Z,96.2
2022-11-07T03:16:17.166Z,96.0
2022-11-07T03:17:16.677Z,95.9
2022-11-07T03:18:17.133Z,96.1
2022-11-07T03:19:16.604Z,96.2
2022-11-07T03:20:17.125Z,96.4
2022-11-07T03:21:16.571Z,96.4
2022-11-07T03:22:16.809Z,96.5
2022-11-07T03:23:18.126Z,96.7
2022-11-07T03:24:16.634Z,96.4
2022-11-07T03:25:17.062Z,96.2
2022-11-07T03:26:16.490Z,96.4
2022-11-07T03:27:16.959Z,96.2
2022-11-07T03:28:17.401Z,96.5
2022-11-07T03:29:16.878Z,96.5
2022-11-07T03:30:17.329Z,96.1
2022-11-07T03:31:16.793Z,96.4
2022-11-07T03:32:16.789Z,96.5
2022-11-07T03:33:17.908Z,96.5
2022-11-07T03:34:16.476Z,96.2
2022-11-07T03:35:16.924Z,96.2
2022-11-07T03:36:17.364Z,96.4
2022-11-07T03:37:16.800Z,96.7
2022-11-07T03:38:17.245Z,96.6
2022-11-07T03:39:25.584Z,96.7
2022-11-07T03:40:17.277Z,96.7
2022-11-07T03:41:16.703Z,96.7
2022-11-07T03:42:17.076Z,96.7
2022-11-07T03:43:17.394Z,96.6
2022-11-07T03:44:17.028Z,96.8
2022-11-07T03:45:16.498Z,96.8
2022-11-07T03:46:17.005Z,95.6
2022-11-07T03:47:16.490Z,95.8
2022-11-07T03:48:16.945Z,96.0
2022-11-07T03:49:17.477Z,96.0
2022-11-07T03:50:16.951Z,95.9
2022-11-07T03:51:17.399Z,96.2
2022-11-07T03:52:17.208Z,96.0
2022-11-07T03:53:25.627Z,96.0
2022-11-07T03:54:17.338Z,96.5
2022-11-07T03:55:16.769Z,96.3
2022-11-07T03:56:17.205Z,96.5
2022-11-07T03:57:16.691Z,96.9
2022-11-07T03:58:17.144Z,96.9
2022-11-07T03:59:16.629Z,97.2
2022-11-07T04:00:17.128Z,97.2
2022-11-07T04:01:16.785Z,97.1
2022-11-07T04:02:16.737Z,97.1
2022-11-07T04:03:17.986Z,96.9
2022-11-07T04:04:16.564Z,97.1
2022-11-07T04:05:17.009Z,97.1
2022-11-07T04:06:16.438Z,97.1
2022-11-07T04:07:16.884Z,97.2
2022-11-07T04:08:17.315Z,97.2
2022-11-07T04:09:16.741Z,97.1
2022-11-07T04:10:17.170Z,97.0
2022-11-07T04:11:16.596Z,97.2
2022-11-07T04:12:16.526Z,97.2
2022-11-07T04:13:17.623Z,97.2
2022-11-07T04:14:17.125Z,97.0
2022-11-07T04:15:16.597Z,96.9
2022-11-07T04:16:18.069Z,96.8
2022-11-07T04:17:16.566Z,96.8
2022-11-07T04:18:17.045Z,96.8
2022-11-07T04:19:16.528Z,97.1
2022-11-07T04:20:16.978Z,96.8
2022-11-07T04:21:16.420Z,96.8
2022-11-07T04:22:17.312Z,96.8
2022-11-07T04:23:17.608Z,96.8
2022-11-07T04:24:17.272Z,96.7
2022-11-07T04:25:16.698Z,96.8
2022-11-07T04:26:17.191Z,96.8
2022-11-07T04:27:16.675Z,96.6
2022-11-07T04:28:17.153Z,96.6
2022-11-07T04:29:16.608Z,96.8
2022-11-07T04:30:17.107Z,96.8
2022-11-07T04:31:16.605Z,96.8
2022-11-07T04:32:17.372Z,97.0
2022-11-07T04:33:17.330Z,97.0
2022-11-07T04:34:16.994Z,96.9
2022-11-07T04:35:16.461Z,96.7
2022-11-07T04:36:16.883Z,96.7
2022-11-07T04:37:17.315Z,96.7
2022-11-07T04:38:16.764Z,96.6
2022-11-07T04:39:17.234Z,96.8
2022-11-07T04:40:16.716Z,96.7
2022-11-07T04:41:17.191Z,96.8
2022-11-07T04:42:16.746Z,96.6
2022-11-07T04:43:17.707Z,96.7
2022-11-07T04:44:17.233Z,96.6
2022-11-07T04:45:16.701Z,96.4
2022-11-07T04:46:17.213Z,96.3
2022-11-07T04:47:16.673Z,96.4
2022-11-07T04:48:17.097Z,96.5
2022-11-07T04:49:16.520Z,96.5
2022-11-07T04:50:16.986Z,96.5
2022-11-07T04:51:16.426Z,96.7
2022-11-07T04:52:17.140Z,96.8
2022-11-07T04:53:17.230Z,96.8
2022-11-07T04:54:16.728Z,96.8
2022-11-07T04:55:17.193Z,96.8
2022-11-07T04:56:16.691Z,96.8
2022-11-07T04:57:17.168Z,97.0
2022-11-07T04:58:16.616Z,97.0
2022-11-07T04:59:17.083Z,97.1
2022-11-07T05:00:16.559Z,97.2
2022-11-07T05:01:17.025Z,97.2
2022-11-07T05:02:17.154Z,97.3
2022-11-07T05:03:17.651Z,97.3
2022-11-07T05:04:17.375Z,97.4
2022-11-07T05:05:16.805Z,97.5
2022-11-07T05:06:17.224Z,97.5
2022-11-07T05:07:16.680Z,97.5
2022-11-07T05:08:17.108Z,97.6
2022-11-07T05:09:16.595Z,97.6
2022-11-07T05:10:17.100Z,97.6
2022-11-07T05:11:16.592Z,97.7
2022-11-07T05:12:17.241Z,97.7
2022-11-07T05:13:17.397Z,97.7
2022-11-07T05:14:16.935Z,97.7
2022-11-07T05:15:17.402Z,97.7
2022-11-07T05:16:16.887Z,97.7
2022-11-07T05:17:17.368Z,97.8
2022-11-07T05:18:16.800Z,97.7
2022-11-07T05:19:17.463Z,97.7
2022-11-07T05:20:16.891Z,97.8
2022-11-07T05:21:17.324Z,97.8
2022-11-07T05:22:17.021Z,97.8
2022-11-07T05:23:17.124Z,97.8
2022-11-07T05:24:16.742Z,97.8
2022-11-07T05:25:17.234Z,97.8
2022-11-07T05:26:16.739Z,97.8
2022-11-07T05:27:17.256Z,97.8
2022-11-07T05:28:16.720Z,97.8
2022-11-07T05:29:17.201Z,97.8
2022-11-07T05:30:16.666Z,97.8
2022-11-07T05:31:17.106Z,97.8
2022-11-07T05:32:17.076Z,97.8
2022-11-07T05:33:17.451Z,97.9
2022-11-07T05:34:17.060Z,97.8
2022-11-07T05:35:16.512Z,97.8
2022-11-07T05:36:16.943Z,97.7
2022-11-07T05:37:17.412Z,97.7
2022-11-07T05:38:16.842Z,97.7
2022-11-07T05:39:17.310Z,97.7
2022-11-07T05:40:16.823Z,97.8
2022-11-07T05:41:17.329Z,97.7
2022-11-07T05:42:16.811Z,97.6
2022-11-07T05:43:18.079Z,97.7
2022-11-07T05:44:16.713Z,97.5
2022-11-07T05:45:17.174Z,97.6
2022-11-07T05:46:16.612Z,97.6
2022-11-07T05:47:17.056Z,97.5
2022-11-07T05:48:16.499Z,97.5
2022-11-07T05:49:16.937Z,97.6
2022-11-07T05:50:17.387Z,97.6
2022-11-07T05:51:16.826Z,97.5
2022-11-07T05:52:16.587Z,97.5
2022-11-07T05:53:18.202Z,97.6
2022-11-07T05:54:16.890Z,97.6
2022-11-07T05:55:17.366Z,97.7
2022-11-07T05:56:16.841Z,97.6
2022-11-07T05:57:17.353Z,97.7
2022-11-07T05:58:16.824Z,97.5
2022-11-07T05:59:17.333Z,97.5
2022-11-07T06:00:16.841Z,97.5
2022-11-07T06:01:17.346Z,97.5
2022-11-07T06:02:17.232Z,97.6
2022-11-07T06:03:17.634Z,97.6
2022-11-07T06:04:17.378Z,97.7
2022-11-07T06:05:24.261Z,97.6
2022-11-07T06:06:16.884Z,97.7
2022-11-07T06:07:17.317Z,97.7
2022-11-07T06:08:16.775Z,97.7
2022-11-07T06:09:17.256Z,97.8
2022-11-07T06:10:16.840Z,97.6
2022-11-07T06:11:17.336Z,97.7
2022-11-07T06:12:17.080Z,97.6
2022-11-07T06:13:17.688Z,97.7
2022-11-07T06:14:17.338Z,97.7
2022-11-07T06:15:16.813Z,97.7
2022-11-07T06:16:17.249Z,97.7
2022-11-07T06:17:16.672Z,97.7
2022-11-07T06:18:17.120Z,97.7
2022-11-07T06:19:16.555Z,97.6
2022-11-07T06:20:17.032Z,97.8
2022-11-07T06:21:16.512Z,97.8
2022-11-07T06:22:17.317Z,97.8
2022-11-07T06:23:17.502Z,97.8
2022-11-07T06:24:17.143Z,97.8
2022-11-07T06:25:16.614Z,97.8
2022-11-07T06:26:17.112Z,97.8
2022-11-07T06:27:16.600Z,97.8
2022-11-07T06:28:17.066Z,97.8
2022-11-07T06:29:16.547Z,97.8
2022-11-07T06:30:17.004Z,97.8
2022-11-07T06:31:16.482Z,97.8
2022-11-07T06:32:17.295Z,97.8
2022-11-07T06:33:17.828Z,97.7
2022-11-07T06:34:17.018Z,97.7
2022-11-07T06:35:16.446Z,97.8
2022-11-07T06:36:16.918Z,97.8
2022-11-07T06:37:17.364Z,97.6
2022-11-07T06:38:16.843Z,97.6
2022-11-07T06:39:17.335Z,97.6
2022-11-07T06:40:16.804Z,97.6
2022-11-07T06:41:17.282Z,97.7
2022-11-07T06:42:16.825Z,97.7
2022-11-07T06:43:18.417Z,97.6
2022-11-07T06:44:17.081Z,97.5
2022-11-07T06:45:16.549Z,97.5
2022-11-07T06:46:16.971Z,97.4
2022-11-07T06:47:17.402Z,97.3
2022-11-07T06:48:16.851Z,97.4
2022-11-07T06:49:17.302Z,97.6
2022-11-07T06:50:16.726Z,97.6
2022-11-07T06:51:17.144Z,97.6
2022-11-07T06:52:17.346Z,97.6
2022-11-07T06:53:17.367Z,97.7
2022-11-07T06:54:17.003Z,97.6
2022-11-07T06:55:16.471Z,97.6
2022-11-07T06:56:16.950Z,97.7
2022-11-07T06:57:17.424Z,97.7
2022-11-07T06:58:16.947Z,97.7
2022-11-07T06:59:16.488Z,97.7
2022-11-07T07:00:16.925Z,97.7
2022-11-07T07:01:17.494Z,97.7
2022-11-07T07:02:52.024Z,97.7
2022-11-07T07:03:17.847Z,97.7
2022-11-07T07:04:16.503Z,97.7
2022-11-07T07:05:21.436Z,97.7
2022-11-07T07:06:16.934Z,97.7
2022-11-07T07:07:17.396Z,97.7
2022-11-07T07:08:16.870Z,97.6
2022-11-07T07:09:17.384Z,97.6
2022-11-07T07:10:16.872Z,97.5
2022-11-07T07:11:17.331Z,97.5
2022-11-07T07:12:17.168Z,97.5
2022-11-07T07:13:17.353Z,97.5
2022-11-07T07:14:17.131Z,97.4
2022-11-07T07:15:16.593Z,97.4
2022-11-07T07:16:17.033Z,97.2
2022-11-07T07:17:16.502Z,97.2
2022-11-07T07:18:16.927Z,97.2
2022-11-07T07:19:17.573Z,97.1
2022-11-07T07:20:17.049Z,96.8
2022-11-07T07:21:16.537Z,96.7
2022-11-07T07:22:17.169Z,96.6
2022-11-07T07:23:17.281Z,96.5
2022-11-07T07:24:17.012Z,96.5
2022-11-07T07:25:16.479Z,96.4
2022-11-07T07:26:16.947Z,96.4
2022-11-07T07:27:17.461Z,96.3
2022-11-07T07:28:16.942Z,96.2
2022-11-07T07:29:17.433Z,96.2
2022-11-07T07:30:16.889Z,96.2
2022-11-07T07:31:17.316Z,96.2
2022-11-07T07:32:17.106Z,96.1
2022-11-07T07:33:17.207Z,96.1
2022-11-07T07:34:16.919Z,96.2
2022-11-07T07:35:17.380Z,96.1
2022-11-07T07:36:21.147Z,96.1
2022-11-07T07:37:16.685Z,96.0
2022-11-07T07:38:17.178Z,96.0
2022-11-07T07:39:16.656Z,95.8
2022-11-07T07:40:17.130Z,95.4
2022-11-07T07:41:16.596Z,95.0
2022-11-07T07:42:16.465Z,95.2
2022-11-07T07:43:17.464Z,95.2
2022-11-07T07:44:17.087Z,95.0
2022-11-07T07:45:16.525Z,95.0
2022-11-07T07:46:16.965Z,95.2
2022-11-07T07:47:17.425Z,95.3
2022-11-07T07:48:16.856Z,95.5
2022-11-07T07:49:17.349Z,95.5
2022-11-07T07:50:16.827Z,95.0
2022-11-07T07:51:17.339Z,94.8
2022-11-07T07:52:17.237Z,94.6
2022-11-07T07:53:17.228Z,94.3
2022-11-07T07:54:16.901Z,94.1
2022-11-07T07:55:17.383Z,93.8
2022-11-07T07:56:16.831Z,93.8
2022-11-07T07:57:17.292Z,93.8
2022-11-07T07:58:16.756Z,93.5
2022-11-07T07:59:17.193Z,93.7
2022-11-07T08:00:16.632Z,93.7
2022-11-07T08:01:17.175Z,93.7
2022-11-07T08:02:17.126Z,93.4
2022-11-07T08:03:17.134Z,92.8
2022-11-07T08:04:16.860Z,92.5
2022-11-07T08:05:17.331Z,92.2
2022-11-07T08:06:16.786Z,91.7
2022-11-07T08:07:17.264Z,92.0
2022-11-07T08:08:16.731Z,92.2
2022-11-07T08:09:17.208Z,91.7
2022-11-07T08:10:40.667Z,91.7
2022-11-07T08:11:17.082Z,91.2
2022-11-07T08:12:16.985Z,90.8
2022-11-07T08:13:17.210Z,90.3
2022-11-07T08:14:16.822Z,90.3
2022-11-07T08:15:17.263Z,89.9
2022-11-07T08:16:16.729Z,89.9
2022-11-07T08:17:17.214Z,89.7
2022-11-07T08:18:16.706Z,89.1
2022-11-07T08:19:17.193Z,88.8
2022-11-07T08:20:16.691Z,89.0
2022-11-07T08:21:17.149Z,88.2
2022-11-07T08:22:17.008Z,88.2
2022-11-07T08:23:17.259Z,87.7
2022-11-07T08:24:16.971Z,87.2
2022-11-07T08:25:17.415Z,87.0
2022-11-07T08:26:16.840Z,86.8
2022-11-07T08:27:17.270Z,87.0
2022-11-07T08:28:16.704Z,87.6
2022-11-07T08:29:17.145Z,87.3
2022-11-07T08:30:18.434Z,86.8
2022-11-07T08:31:16.905Z,87.4
2022-11-07T08:32:16.949Z,87.0
2022-11-07T08:33:18.380Z,87.1
2022-11-07T08:34:17.021Z,87.5
2022-11-07T08:35:16.505Z,87.5
2022-11-07T08:36:16.978Z,87.9
2022-11-07T08:37:16.508Z,87.6
2022-11-07T08:38:17.007Z,87.7
2022-11-07T08:39:16.479Z,87.8
2022-11-07T08:40:16.937Z,87.8
2022-11-07T08:41:22.700Z,88.0
2022-11-07T08:42:17.399Z,88.1
2022-11-07T08:43:17.660Z,87.9
2022-11-07T08:44:17.384Z,87.5
2022-11-07T08:45:16.820Z,87.2
2022-11-07T08:46:17.261Z,87.0
2022-11-07T08:47:16.757Z,87.2
2022-11-07T08:48:17.212Z,85.8
2022-11-07T08:49:16.706Z,85.5
2022-11-07T08:50:17.209Z,85.8
2022-11-07T08:51:16.710Z,86.3
2022-11-07T08:52:17.398Z,86.7
2022-11-07T08:53:17.694Z,86.3
2022-11-07T08:54:17.418Z,86.3
2022-11-07T08:55:16.842Z,85.1
2022-11-07T08:56:17.284Z,85.2
2022-11-07T08:57:16.738Z,85.2
2022-11-07T08:58:17.222Z,85.4
2022-11-07T08:59:16.716Z,85.5
2022-11-07T09:00:17.185Z,85.5
2022-11-07T09:01:16.932Z,85.8
2022-11-07T09:02:57.669Z,85.6
2022-11-07T09:03:47.766Z,85.4
2022-11-07T09:04:16.866Z,86.2
2022-11-07T09:05:17.361Z,86.2
2022-11-07T09:06:16.845Z,87.0
2022-11-07T09:07:17.330Z,87.0
2022-11-07T09:08:16.762Z,86.7
2022-11-07T09:09:17.197Z,86.6
2022-11-07T09:10:16.629Z,86.6
2022-11-07T09:11:17.053Z,86.2
2022-11-07T09:12:17.136Z,86.5
2022-11-07T09:13:17.470Z,86.0
2022-11-07T09:14:17.045Z,86.4
2022-11-07T09:15:16.529Z,86.8
2022-11-07T09:16:17.020Z,86.9
2022-11-07T09:17:16.496Z,86.8
2022-11-07T09:18:16.992Z,86.9
2022-11-07T09:19:16.496Z,86.8
2022-11-07T09:20:17.005Z,86.8
2022-11-07T09:21:22.801Z,86.9
2022-11-07T09:22:16.638Z,86.5
2022-11-07T09:23:17.830Z,86.3
2022-11-07T09:24:17.633Z,86.8
2022-11-07T09:25:17.081Z,86.9
2022-11-07T09:26:16.517Z,86.5
2022-11-07T09:27:16.964Z,86.2
2022-11-07T09:28:17.397Z,86.5
2022-11-07T09:29:16.857Z,86.2
2022-11-07T09:30:17.345Z,86.0
2022-11-07T09:31:16.808Z,86.5
2022-11-07T09:32:43.123Z,86.3
2022-11-07T09:33:17.797Z,86.2
2022-11-07T09:34:16.501Z,86.0
2022-11-07T09:35:16.985Z,86.2
2022-11-07T09:36:16.418Z,86.1
2022-11-07T09:37:16.861Z,85.7
2022-11-07T09:38:17.287Z,85.9
2022-11-07T09:39:16.714Z,85.8
2022-11-07T09:40:17.144Z,85.6
2022-11-07T09:41:16.627Z,85.7
2022-11-07T09:42:16.989Z,86.0
2022-11-07T09:43:17.327Z,86.0
2022-11-07T09:44:16.982Z,85.8
2022-11-07T09:45:16.466Z,86.0
2022-11-07T09:46:16.938Z,85.9
2022-11-07T09:47:17.417Z,86.0
2022-11-07T09:48:16.881Z,85.8
2022-11-07T09:49:17.349Z,85.9
2022-11-07T09:50:16.788Z,85.3
2022-11-07T09:51:17.282Z,85.5
2022-11-07T09:52:16.878Z,84.9
2022-11-07T09:53:18.021Z,84.8
2022-11-07T09:54:16.654Z,84.7
2022-11-07T09:55:17.143Z,85.3
2022-11-07T09:56:16.621Z,85.2
2022-11-07T09:57:17.080Z,85.2
2022-11-07T09:58:16.567Z,85.0
2022-11-07T09:59:17.031Z,85.1
2022-11-07T10:00:16.567Z,84.8
2022-11-07T10:01:17.139Z,84.5
2022-11-07T10:02:16.598Z,84.4
2022-11-07T10:03:18.073Z,83.8
2022-11-07T10:04:26.597Z,83.8
2022-11-07T10:05:17.301Z,83.9
2022-11-07T10:06:17.001Z,83.7
2022-11-07T10:07:16.475Z,83.4
2022-11-07T10:08:16.965Z,83.7
2022-11-07T10:09:17.448Z,84.2
2022-11-07T10:10:16.945Z,83.2
2022-11-07T10:11:17.429Z,83.2
2022-11-07T10:12:17.457Z,82.9
2022-11-07T10:13:17.885Z,82.8
2022-11-07T10:14:16.469Z,82.4
2022-11-07T10:15:16.920Z,82.7
2022-11-07T10:16:17.376Z,82.5
2022-11-07T10:17:16.838Z,82.4
2022-11-07T10:18:17.298Z,82.3
2022-11-07T10:19:16.743Z,82.8
2022-11-07T10:20:24.904Z,82.8
2022-11-07T10:21:37.452Z,82.3
2022-11-07T10:22:16.521Z,82.5
2022-11-07T10:23:17.850Z,81.9
2022-11-07T10:24:16.598Z,82.2
2022-11-07T10:25:17.059Z,82.2
2022-11-07T10:26:16.543Z,81.8
2022-11-07T10:27:16.976Z,82.0
2022-11-07T10:28:16.431Z,81.8
2022-11-07T10:29:16.882Z,82.6
2022-11-07T10:30:17.369Z,82.2
2022-11-07T10:31:16.806Z,82.7
2022-11-07T10:32:17.185Z,82.2
2022-11-07T10:33:17.278Z,82.3
2022-11-07T10:34:16.965Z,81.8
2022-11-07T10:35:17.438Z,81.5
2022-11-07T10:36:16.928Z,82.8
2022-11-07T10:37:17.385Z,82.8
2022-11-07T10:38:16.870Z,81.2
2022-11-07T10:39:17.385Z,81.2
2022-11-07T10:40:16.891Z,81.5
2022-11-07T10:41:17.379Z,81.2
2022-11-07T10:42:16.905Z,81.2
2022-11-07T10:43:18.236Z,81.0
2022-11-07T10:44:16.999Z,81.3
2022-11-07T10:45:16.460Z,81.7
2022-11-07T10:46:17.017Z,80.8
2022-11-07T10:47:16.515Z,81.0
2022-11-07T10:48:17.472Z,81.8
2022-11-07T10:49:17.238Z,81.5
2022-11-07T10:50:16.716Z,81.9
2022-11-07T10:51:17.196Z,82.3
2022-11-07T10:52:16.862Z,82.7
2022-11-07T10:53:17.291Z,83.0
2022-11-07T10:54:22.217Z,83.0
2022-11-07T10:55:16.751Z,83.0
2022-11-07T10:56:17.192Z,83.5
2022-11-07T10:57:16.621Z,82.8
2022-11-07T10:58:17.847Z,82.3
2022-11-07T10:59:16.448Z,82.2
2022-11-07T11:00:17.057Z,82.4
2022-11-07T11:01:16.696Z,81.7
2022-11-07T11:02:17.408Z,80.5
2022-11-07T11:03:16.900Z,81.4
2022-11-07T11:04:17.412Z,80.8
2022-11-07T11:05:16.900Z,81.4
2022-11-07T11:06:17.347Z,79.7
2022-11-07T11:07:16.810Z,79.8
2022-11-07T11:08:18.542Z,80.1
2022-11-07T11:09:17.218Z,79.7
2022-11-07T11:10:16.796Z,79.7
2022-11-07T11:11:17.304Z,80.5
2022-11-07T11:12:16.891Z,80.5
2022-11-07T11:13:17.356Z,79.6
2022-11-07T11:14:16.882Z,79.8
2022-11-07T11:15:17.353Z,80.7
2022-11-07T11:16:16.836Z,80.4
2022-11-07T11:17:17.316Z,81.0
2022-11-07T11:18:17.528Z,80.2
2022-11-07T11:19:17.406Z,80.5
2022-11-07T11:20:16.923Z,80.8
2022-11-07T11:21:17.374Z,80.8
2022-11-07T11:22:17.164Z,81.0
2022-11-07T11:23:17.322Z,81.0
2022-11-07T11:24:16.913Z,81.2
2022-11-07T11:25:17.379Z,81.5
2022-11-07T11:26:16.885Z,81.1
2022-11-07T11:27:17.392Z,81.2
2022-11-07T11:28:17.826Z,81.8
2022-11-07T11:29:16.552Z,80.6
2022-11-07T11:30:17.032Z,80.8
2022-11-07T11:31:16.522Z,81.3
2022-11-07T11:32:16.746Z,80.5
2022-11-07T11:33:17.978Z,81.3
2022-11-07T11:34:16.691Z,81.1
2022-11-07T11:35:17.161Z,80.7
2022-11-07T11:36:16.686Z,80.7
2022-11-07T11:37:17.177Z,81.2
2022-11-07T11:38:16.848Z,81.0
2022-11-07T11:39:17.408Z,80.1
2022-11-07T11:40:16.907Z,80.6
2022-11-07T11:41:17.402Z,80.5
2022-11-07T11:42:16.955Z,79.5
2022-11-07T11:43:18.271Z,78.7
2022-11-07T11:44:16.941Z,78.9
2022-11-07T11:45:17.382Z,79.8
2022-11-07T11:46:16.817Z,79.6
2022-11-07T11:47:17.258Z,80.3
2022-11-07T11:48:16.862Z,79.3
2022-11-07T11:49:17.329Z,79.0
2022-11-07T11:50:16.805Z,79.9
2022-11-07T11:51:17.281Z,79.9
2022-11-07T11:52:16.931Z,79.7
2022-11-07T11:53:18.365Z,79.5
2022-11-07T11:54:17.005Z,78.9
2022-11-07T11:55:16.564Z,79.2
2022-11-07T11:56:17.008Z,79.1
2022-11-07T11:57:16.436Z,79.3
2022-11-07T11:58:16.877Z,79.0
2022-11-07T11:59:17.329Z,80.0
2022-11-07T12:00:16.777Z,78.5
2022-11-07T12:01:17.331Z,79.6
2022-11-07T12:02:17.282Z,79.2
2022-11-07T12:03:17.339Z,80.2
2022-11-07T12:04:16.984Z,80.7
2022-11-07T12:05:16.490Z,79.6
2022-11-07T12:06:17.003Z,80.1
2022-11-07T12:07:16.528Z,80.2
2022-11-07T12:08:17.013Z,79.4
2022-11-07T12:09:18.565Z,79.0
2022-11-07T12:10:17.028Z,77.6
2022-11-07T12:11:16.458Z,77.7
2022-11-07T12:12:17.229Z,78.3
2022-11-07T12:13:17.253Z,78.2
2022-11-07T12:14:16.917Z,78.9
2022-11-07T12:15:17.400Z,77.6
2022-11-07T12:16:16.828Z,77.2
2022-11-07T12:17:17.289Z,76.5
2022-11-07T12:18:16.786Z,76.9
2022-11-07T12:19:17.251Z,76.7
2022-11-07T12:20:16.757Z,77.7
2022-11-07T12:21:17.287Z,76.8
2022-11-07T12:22:17.074Z,77.4
2022-11-07T12:23:17.220Z,76.9
2022-11-07T12:24:16.976Z,76.8
2022-11-07T12:25:16.434Z,76.3
2022-11-07T12:26:16.871Z,76.4
2022-11-07T12:27:24.053Z,76.5
2022-11-07T12:28:16.965Z,76.2
2022-11-07T12:29:17.417Z,77.2
2022-11-07T12:30:16.851Z,75.9
2022-11-07T12:31:17.293Z,75.7
2022-11-07T12:32:17.325Z,75.0
2022-11-07T12:33:17.388Z,75.8
2022-11-07T12:34:17.411Z,75.6
2022-11-07T12:35:16.868Z,75.4
2022-11-07T12:36:17.326Z,75.6
2022-11-07T12:37:16.802Z,76.0
2022-11-07T12:38:17.287Z,76.3
2022-11-07T12:39:16.715Z,75.7
2022-11-07T12:40:17.190Z,76.6
2022-11-07T12:41:16.631Z,76.8
2022-11-07T12:42:17.236Z,75.1
2022-11-07T12:43:17.409Z,75.5
2022-11-07T12:44:17.054Z,76.2
2022-11-07T12:45:16.481Z,75.8
2022-11-07T12:46:16.974Z,76.4
2022-11-07T12:47:16.446Z,75.8
2022-11-07T12:48:17.095Z,76.2
2022-11-07T12:49:16.664Z,76.3
2022-11-07T12:50:17.139Z,75.7
2022-11-07T12:51:16.595Z,76.2
2022-11-07T12:52:17.341Z,76.3
2022-11-07T12:53:17.764Z,75.7
2022-11-07T12:54:16.918Z,75.4
2022-11-07T12:55:17.379Z,76.0
2022-11-07T12:56:16.820Z,75.8
2022-11-07T12:57:17.249Z,76.1
2022-11-07T12:58:16.676Z,75.6
2022-11-07T12:59:17.171Z,75.8
2022-11-07T13:00:16.697Z,75.3
2022-11-07T13:01:17.217Z,75.5
2022-11-07T13:02:17.736Z,75.8
2022-11-07T13:03:17.991Z,75.3
2022-11-07T13:04:16.667Z,75.4
2022-11-07T13:05:17.185Z,75.8
2022-11-07T13:06:16.665Z,76.0
2022-11-07T13:07:17.117Z,75.3
2022-11-07T13:08:16.570Z,75.5
2022-11-07T13:09:17.001Z,77.1
2022-11-07T13:10:16.432Z,75.7
2022-11-07T13:11:16.897Z,75.5
2022-11-07T13:12:16.867Z,76.1
2022-11-07T13:13:18.216Z,76.2
2022-11-07T13:14:24.347Z,76.0
2022-11-07T13:15:17.142Z,76.6
2022-11-07T13:16:16.602Z,76.2
2022-11-07T13:17:17.082Z,76.3
2022-11-07T13:18:16.559Z,76.4